createdAt,value
2023-03-22T00:02:13.679Z,70.55
2023-03-22T00:04:42.958Z,70.71
2023-03-22T00:07:09.653Z,70.64
2023-03-22T00:09:36.623Z,70.12
2023-03-22T00:12:03.934Z,70.05
2023-03-22T00:14:30.554Z,70.26
2023-03-22T00:16:57.173Z,70.21
2023-03-22T00:19:23.876Z,70.14
2023-03-22T00:21:51.439Z,69.79
2023-03-22T00:24:18.191Z,69.99
2023-03-22T00:26:47.026Z,70.64
2023-03-22T00:29:14.230Z,71.52
2023-03-22T00:31:41.718Z,71.88
2023-03-22T00:34:08.405Z,71.46
2023-03-22T00:36:37.801Z,71.10
2023-03-22T00:39:04.394Z,71.54
2023-03-22T00:41:30.988Z,71.56
2023-03-22T00:43:57.535Z,71.25
2023-03-22T00:46:24.147Z,72.28
2023-03-22T00:48:50.882Z,71.68
2023-03-22T00:51:18.083Z,71.48
2023-03-22T00:53:45.271Z,71.88
2023-03-22T00:56:16.028Z,71.64
2023-03-22T00:59:00.318Z,71.47
2023-03-22T01:01:29.460Z,71.58
2023-03-22T01:03:56.066Z,71.93
2023-03-22T01:06:22.703Z,72.01
2023-03-22T01:08:50.871Z,72.68
2023-03-22T01:11:18.040Z,72.55
2023-03-22T01:13:45.582Z,72.73
2023-03-22T01:16:12.236Z,72.71
2023-03-22T01:18:40.804Z,73.22
2023-03-22T01:21:08.698Z,73.05
2023-03-22T01:23:37.280Z,72.58
2023-03-22T01:26:05.229Z,73.59
2023-03-22T01:28:31.963Z,73.49
2023-03-22T01:31:02.959Z,73.11
2023-03-22T01:33:30.304Z,73.06
2023-03-22T01:35:56.948Z,72.87
2023-03-22T01:38:23.964Z,73.32
2023-03-22T01:40:55.695Z,73.95
2023-03-22T01:43:22.454Z,74.10
2023-03-22T01:45:51.535Z,73.13
2023-03-22T01:48:27.907Z,73.70
2023-03-22T01:51:22.579Z,73.44
2023-03-22T01:54:10.629Z,73.87
2023-03-22T01:56:41.026Z,74.07
2023-03-22T01:59:14.636Z,73.24
2023-03-22T02:02:05.909Z,73.67
2023-03-22T02:04:36.733Z,73.60
2023-03-22T02:07:15.333Z,73.40
2023-03-22T02:09:43.832Z,73.49
2023-03-22T02:12:32.207Z,74.22
2023-03-22T02:15:35.880Z,74.00
2023-03-22T02:18:46.907Z,74.11
2023-03-22T02:21:16.374Z,74.85
2023-03-22T02:24:25.144Z,74.10
2023-03-22T02:27:06.382Z,74.55
2023-03-22T02:29:46.395Z,74.08
2023-03-22T02:32:12.968Z,73.74
2023-03-22T02:35:04.567Z,74.68
2023-03-22T02:37:52.447Z,74.98
2023-03-22T02:40:39.898Z,74.69
2023-03-22T02:43:30.954Z,74.59
2023-03-22T02:46:06.212Z,74.84
2023-03-22T02:48:40.429Z,74.91
2023-03-22T02:51:13.614Z,74.89
2023-03-22T02:53:52.464Z,74.60
2023-03-22T02:56:33.723Z,74.39
2023-03-22T02:59:04.367Z,73.88
2023-03-22T03:01:38.042Z,74.89
2023-03-22T03:04:09.723Z,74.37
2023-03-22T03:06:39.864Z,75.18
2023-03-22T03:09:08.445Z,75.69
2023-03-22T03:11:35.211Z,74.66
2023-03-22T03:14:01.893Z,74.88
2023-03-22T03:16:34.978Z,74.73
2023-03-22T03:19:20.340Z,75.26
2023-03-22T03:22:04.160Z,74.78
2023-03-22T03:24:39.354Z,74.75
2023-03-22T03:27:17.613Z,75.09
2023-03-22T03:30:11.607Z,75.38
2023-03-22T03:32:47.918Z,75.14
2023-03-22T03:35:25.584Z,75.64
2023-03-22T03:38:02.614Z,75.24
2023-03-22T03:40:41.164Z,74.77
2023-03-22T03:43:09.774Z,74.81
2023-03-22T03:45:37.691Z,74.61
2023-03-22T03:48:09.147Z,74.76
2023-03-22T03:50:37.330Z,75.31
2023-03-22T03:53:04.836Z,74.40
2023-03-22T03:55:32.789Z,74.47
2023-03-22T03:57:59.430Z,74.97
2023-03-22T04:00:26.049Z,74.82
2023-03-22T04:03:19.109Z,75.11
2023-03-22T04:06:00.122Z,75.45
2023-03-22T04:08:28.567Z,74.63
2023-03-22T04:10:55.385Z,75.46
2023-03-22T04:13:22.036Z,75.63
2023-03-22T04:15:53.919Z,75.72
2023-03-22T04:18:21.321Z,75.86
2023-03-22T04:20:49.502Z,75.33
2023-03-22T04:23:16.816Z,75.57
2023-03-22T04:25:50.091Z,75.31
2023-03-22T04:28:24.017Z,75.05
2023-03-22T04:30:52.350Z,75.29
2023-03-22T04:33:56.121Z,75.42
2023-03-22T04:36:36.582Z,75.33
2023-03-22T04:39:13.675Z,75.54
2023-03-22T04:41:44.949Z,75.34
2023-03-22T04:44:11.840Z,75.51
2023-03-22T04:46:44.627Z,75.95
2023-03-22T04:49:11.366Z,76.25
2023-03-22T04:51:40.404Z,75.63
2023-03-22T04:54:28.511Z,76.16
2023-03-22T04:56:55.498Z,75.79
2023-03-22T04:59:24.030Z,75.54
2023-03-22T05:01:51.497Z,76.00
2023-03-22T05:04:22.237Z,76.06
2023-03-22T05:06:53.773Z,76.04
2023-03-22T05:09:26.298Z,75.85
2023-03-22T05:11:54.108Z,76.02
2023-03-22T05:14:37.976Z,75.63
2023-03-22T05:17:06.598Z,75.86
2023-03-22T05:19:36.437Z,75.93
2023-03-22T05:22:03.062Z,76.32
2023-03-22T05:24:41.169Z,75.96
2023-03-22T05:27:14.165Z,75.55
2023-03-22T05:29:45.103Z,76.18
2023-03-22T05:32:29.156Z,76.19
2023-03-22T05:34:56.357Z,75.77
2023-03-22T05:37:32.560Z,75.30
2023-03-22T05:39:59.984Z,75.70
2023-03-22T05:42:36.479Z,75.63
2023-03-22T05:45:12.563Z,75.87
2023-03-22T05:47:41.381Z,75.10
2023-03-22T05:50:17.766Z,75.77
2023-03-22T05:52:45.579Z,75.46
2023-03-22T05:55:20.371Z,75.33
2023-03-22T05:57:51.521Z,75.37
2023-03-22T06:00:18.865Z,75.28
2023-03-22T06:03:05.538Z,75.16
2023-03-22T06:05:38.139Z,75.19
2023-03-22T06:08:04.902Z,74.61
2023-03-22T06:10:31.591Z,75.22
2023-03-22T06:12:58.345Z,75.34
2023-03-22T06:15:28.932Z,75.04
2023-03-22T06:18:05.372Z,73.97
2023-03-22T06:20:37.045Z,73.95
2023-03-22T06:23:09.636Z,74.10
2023-03-22T06:25:38.469Z,74.45
2023-03-22T06:28:08.541Z,74.08
2023-03-22T06:30:36.313Z,74.22
2023-03-22T06:33:26.106Z,74.42
2023-03-22T06:35:59.714Z,74.46
2023-03-22T06:38:32.849Z,74.14
2023-03-22T06:40:59.562Z,73.55
2023-03-22T06:43:27.324Z,73.45
2023-03-22T06:46:01.500Z,73.44
2023-03-22T06:48:34.338Z,72.98
2023-03-22T06:51:06.793Z,73.27
2023-03-22T06:53:35.486Z,72.88
2023-03-22T06:56:03.789Z,72.88
2023-03-22T06:58:34.815Z,72.54
2023-03-22T07:01:01.637Z,72.05
2023-03-22T07:03:31.769Z,72.00
2023-03-22T07:06:06.922Z,71.72
2023-03-22T07:08:37.707Z,71.71
2023-03-22T07:11:06.328Z,71.53
2023-03-22T07:13:33.533Z,71.50
2023-03-22T07:16:03.963Z,70.53
2023-03-22T07:18:43.722Z,69.25
2023-03-22T07:21:10.699Z,69.15
2023-03-22T07:23:39.930Z,69.12
2023-03-22T07:26:10.767Z,68.32
2023-03-22T07:28:41.527Z,68.41
2023-03-22T07:31:12.058Z,68.28
2023-03-22T07:34:00.425Z,68.00
2023-03-22T07:36:29.980Z,66.91
2023-03-22T07:38:57.104Z,66.64
2023-03-22T07:41:33.920Z,66.43
2023-03-22T07:44:33.067Z,66.16
2023-03-22T07:47:40.025Z,65.60
2023-03-22T07:50:27.824Z,65.58
2023-03-22T07:52:56.759Z,64.93
2023-03-22T07:55:24.190Z,64.91
2023-03-22T07:57:51.255Z,64.39
2023-03-22T08:00:18.498Z,64.04
2023-03-22T08:02:54.719Z,63.30
2023-03-22T08:05:51.984Z,62.09
2023-03-22T08:08:20.623Z,61.79
2023-03-22T08:10:51.573Z,60.94
2023-03-22T08:13:18.223Z,60.18
2023-03-22T08:15:44.829Z,60.62
2023-03-22T08:18:11.461Z,59.66
2023-03-22T08:20:40.062Z,59.32
2023-03-22T08:23:15.967Z,58.75
2023-03-22T08:25:58.067Z,58.30
2023-03-22T08:28:24.708Z,57.78
2023-03-22T08:30:51.652Z,56.67
2023-03-22T08:33:22.039Z,56.88
2023-03-22T08:35:48.680Z,56.04
2023-03-22T08:38:15.566Z,56.82
2023-03-22T08:40:47.417Z,55.96
2023-03-22T08:43:17.359Z,56.51
2023-03-22T08:45:44.496Z,55.56
2023-03-22T08:48:15.608Z,55.09
2023-03-22T08:51:21.492Z,53.66
2023-03-22T08:54:02.298Z,51.57
2023-03-22T08:56:50.221Z,51.39
2023-03-22T08:59:38.213Z,51.56
2023-03-22T09:02:27.431Z,50.78
2023-03-22T09:04:55.373Z,49.95
2023-03-22T09:07:22.481Z,49.88
2023-03-22T09:09:58.548Z,49.71
2023-03-22T09:12:26.249Z,46.61
2023-03-22T09:14:53.852Z,47.26
2023-03-22T09:17:22.572Z,46.63
2023-03-22T09:19:51.407Z,46.98
2023-03-22T09:22:21.056Z,46.54
2023-03-22T09:24:50.435Z,44.03
2023-03-22T09:27:17.387Z,45.19
2023-03-22T09:29:43.961Z,44.39
2023-03-22T09:32:17.167Z,44.09
2023-03-22T09:34:48.180Z,45.16
2023-03-22T09:37:15.191Z,43.40
2023-03-22T09:39:49.268Z,43.57
2023-03-22T09:42:28.316Z,44.56
2023-03-22T09:44:56.849Z,44.77
2023-03-22T09:47:45.194Z,43.70
2023-03-22T09:50:18.644Z,42.53
2023-03-22T09:52:45.218Z,42.32
2023-03-22T09:55:37.575Z,40.81
2023-03-22T09:58:28.610Z,39.99
2023-03-22T10:01:14.594Z,38.45
2023-03-22T10:04:07.824Z,39.03
2023-03-22T10:06:34.481Z,38.62
2023-03-22T10:09:20.776Z,39.17
2023-03-22T10:11:53.670Z,37.92
2023-03-22T10:15:01.859Z,38.08
2023-03-22T10:17:29.925Z,38.15
2023-03-22T10:20:09.109Z,36.87
2023-03-22T10:22:40.764Z,37.87
2023-03-22T10:25:08.741Z,39.06
2023-03-22T10:27:36.975Z,40.12
2023-03-22T10:30:21.189Z,38.82
2023-03-22T10:33:16.847Z,38.45
2023-03-22T10:35:44.082Z,36.51
2023-03-22T10:38:21.860Z,36.42
2023-03-22T10:40:50.066Z,36.00
2023-03-22T10:43:31.757Z,36.07
2023-03-22T10:46:01.223Z,36.14
2023-03-22T10:48:33.099Z,36.11
2023-03-22T10:51:01.302Z,35.58
2023-03-22T10:53:47.761Z,35.64
2023-03-22T10:56:16.920Z,34.90
2023-03-22T10:58:43.526Z,36.09
2023-03-22T11:01:29.482Z,34.66
2023-03-22T11:04:16.478Z,33.69
2023-03-22T11:06:54.711Z,35.33
2023-03-22T11:09:24.393Z,34.12
2023-03-22T11:12:03.619Z,34.63
2023-03-22T11:14:42.079Z,34.35
2023-03-22T11:17:14.864Z,33.82
2023-03-22T11:19:53.975Z,34.52
2023-03-22T11:22:40.513Z,33.74
2023-03-22T11:25:34.059Z,33.82
2023-03-22T11:28:16.372Z,34.20
2023-03-22T11:30:58.696Z,33.42
2023-03-22T11:33:28.775Z,33.78
2023-03-22T11:35:57.657Z,33.75
2023-03-22T11:38:35.562Z,33.40
2023-03-22T11:41:06.577Z,32.74
2023-03-22T11:43:37.120Z,33.23
2023-03-22T11:46:05.270Z,32.91
2023-03-22T11:48:33.310Z,32.07
2023-03-22T11:51:12.462Z,32.23
2023-03-22T11:53:42.597Z,32.53
2023-03-22T11:56:11.460Z,33.79
2023-03-22T11:58:48.555Z,33.36
2023-03-22T12:01:21.577Z,33.42
2023-03-22T12:03:54.507Z,32.88
2023-03-22T12:06:31.883Z,33.72
2023-03-22T12:09:19.114Z,31.64
2023-03-22T12:11:49.620Z,32.24
2023-03-22T12:14:23.305Z,32.77
2023-03-22T12:16:59.277Z,33.05
2023-03-22T12:19:28.785Z,33.31
2023-03-22T12:21:56.235Z,34.14
2023-03-22T12:24:27.229Z,33.84
2023-03-22T12:27:25.626Z,33.25
2023-03-22T12:29:59.273Z,31.91
2023-03-22T12:32:30.849Z,30.91
2023-03-22T12:35:14.078Z,31.04
2023-03-22T12:37:47.642Z,31.99
2023-03-22T12:40:16.867Z,30.86
2023-03-22T12:43:07.880Z,31.31
2023-03-22T12:45:40.468Z,30.87
2023-03-22T12:48:14.399Z,31.01
2023-03-22T12:50:49.480Z,31.12
2023-03-22T12:53:18.771Z,31.85
2023-03-22T12:55:47.208Z,30.89
2023-03-22T12:58:19.813Z,31.20
2023-03-22T13:00:59.402Z,31.53
2023-03-22T13:03:27.005Z,31.45
2023-03-22T13:06:06.324Z,30.73
2023-03-22T13:09:01.960Z,32.23
2023-03-22T13:11:28.562Z,31.46
2023-03-22T13:13:55.092Z,31.51
2023-03-22T13:16:24.586Z,31.57
2023-03-22T13:18:51.215Z,32.06
2023-03-22T13:21:21.246Z,30.42
2023-03-22T13:24:01.052Z,31.23
2023-03-22T13:26:58.953Z,32.51
2023-03-22T13:29:37.502Z,32.68
2023-03-22T13:32:28.582Z,33.27
2023-03-22T13:34:55.827Z,33.83
2023-03-22T13:37:35.702Z,32.79
2023-03-22T13:40:22.128Z,32.12
2023-03-22T13:42:50.680Z,31.99
2023-03-22T13:45:33.971Z,32.01
2023-03-22T13:48:13.354Z,31.26
2023-03-22T13:50:40.388Z,31.90
2023-03-22T13:53:22.832Z,31.20
2023-03-22T13:55:51.420Z,30.44
2023-03-22T13:58:30.966Z,30.68
2023-03-22T14:00:58.031Z,31.63
2023-03-22T14:03:35.765Z,29.60
2023-03-22T14:06:15.172Z,31.48
2023-03-22T14:08:44.172Z,30.10
2023-03-22T14:11:17.997Z,29.67
2023-03-22T14:13:51.326Z,29.44
2023-03-22T14:16:48.661Z,30.57
2023-03-22T14:19:29.073Z,31.37
